Accueil
METAR-TAF:

METAR-TAF

Aéroports :

Aéroport de Weeze

Weeze, Allemagne

latitude: 51-36-09N, longitude: 006-08-32E, altitude: 32 m

Observation

Le bulletin a été fait il y a 13 heures et 19 minutes, à 11:50 UTC
Vent 7 kt de nord/nord-est, variant entre nord/nord-ouest et sud-est
Température 24°C
Humidité 34%
Pression 1021 hPa
Visibilité 10 km ou plus
pas de nuages en-dessous de 1500 mètres et pas de cumulonimbus.

METAR: EDLV 011150Z 03007KT 330V130 CAVOK 24/07 Q1021

Heure: 03:09 (01:09 UTC)

Prévision

Le bulletin a été fait il y a 14 heures et 9 minutes, à 11:00 UTC
Prévision valable du 01 à 12 UTC au 02 à 12 UTC
Vent 6 kt de nord-est
Visibilité 10 km ou plus
pas de nuages en-dessous de 1500 mètres et pas de cumulonimbus.
Evoluant progressivement
du 01 à 18 UTC au 01 à 20 UTC
Vent 3 kt de direction variable

TAF: EDLV 011100Z 0112/0212 04006KT CAVOK BECMG 0118/0120 VRB03KT

Observations et prévisions météorologiques de plus de 4000 aéroports (messages METAR et TAF).

Les stations disponibles sont représentées par des disques jaunes et rouges sur la carte.

Passer la souris dessus pour voir le nom de la station.

Cliquer dessus pour voir les observations et prévisions météorologiques.

Pour changer de carte: cliquez sur les boutons verts avec une croix noire pour zoomer, sur le bouton vert avec un tiret pour effectuer un zoom arrière, ou sur les flèches vertes pour les cartes adjacentes.


METAR-TAF: